Time,TemperatureF,DewpointF,PressureIn,WindDirection,WindDirectionDegrees,WindSpeedMPH,WindSpeedGustMPH,Humidity,HourlyPrecipIn,Conditions,Clouds,dailyrainin,SoftwareType,DateUTC
2013-06-18 01:00:00,77.0,12.0,29.90,SSE,150,6.0,9.0,8,0.00,,,-99.99,,2013-06-18 07:00:00,
2013-06-18 01:33:00,77.0,12.0,29.90,SSE,150,6.0,9.0,8,0.00,,,-99.99,,2013-06-18 07:33:00,
2013-06-18 01:43:00,77.0,12.0,29.90,SSE,150,6.0,9.0,8,0.00,,,-99.99,,2013-06-18 07:43:00,
2013-06-18 01:53:00,77.0,12.0,29.90,SSE,150,6.0,9.0,8,0.00,,,-99.99,,2013-06-18 07:53:00,
2013-06-18 03:00:00,72.0,15.0,29.88,SSE,151,3.0,6.0,11,0.00,,,-99.99,,2013-06-18 09:00:00,
2013-06-18 03:34:00,72.0,15.0,29.88,SSE,151,3.0,6.0,11,0.00,,,-99.99,,2013-06-18 09:34:00,
2013-06-18 03:43:00,72.0,15.0,29.88,SSE,151,3.0,6.0,11,0.00,,,-99.99,,2013-06-18 09:43:00,
2013-06-18 03:53:00,72.0,15.0,29.88,SSE,151,3.0,6.0,11,0.00,,,-99.99,,2013-06-18 09:53:00,
2013-06-18 04:00:00,70.0,15.0,29.88,South,180,2.0,5.0,11,0.00,,,-99.99,,2013-06-18 10:00:00,
2013-06-18 04:33:00,70.0,15.0,29.88,South,180,2.0,5.0,11,0.00,,,-99.99,,2013-06-18 10:33:00,
2013-06-18 04:43:00,70.0,15.0,29.88,South,180,2.0,5.0,11,0.00,,,-99.99,,2013-06-18 10:43:00,
2013-06-18 04:53:00,70.0,15.0,29.88,South,180,2.0,5.0,11,0.00,,,-99.99,,2013-06-18 10:53:00,
2013-06-18 05:00:00,69.0,15.0,29.89,SSE,159,5.0,9.0,12,0.00,,,-99.99,,2013-06-18 11:00:00,
2013-06-18 05:32:00,69.0,15.0,29.89,SSE,159,5.0,9.0,12,0.00,,,-99.99,,2013-06-18 11:32:00,
2013-06-18 05:43:00,69.0,15.0,29.89,SSE,159,5.0,9.0,12,0.00,,,-99.99,,2013-06-18 11:43:00,
2013-06-18 05:52:00,69.0,15.0,29.89,SSE,159,5.0,9.0,12,0.00,,,-99.99,,2013-06-18 11:52:00,
2013-06-18 07:00:00,65.0,20.0,29.92,SSE,161,2.0,5.0,17,0.00,,,-99.99,,2013-06-18 13:00:00,
2013-06-18 07:34:00,65.0,20.0,29.92,SSE,161,2.0,5.0,17,0.00,,,-99.99,,2013-06-18 13:34:00,
2013-06-18 07:43:00,65.0,20.0,29.92,SSE,161,2.0,5.0,17,0.00,,,-99.99,,2013-06-18 13:43:00,
2013-06-18 07:53:00,65.0,20.0,29.92,SSE,161,2.0,5.0,17,0.00,,,-99.99,,2013-06-18 13:53:00,
2013-06-18 08:00:00,73.0,20.0,29.94,WNW,298,1.0,4.0,13,0.00,,,-99.99,,2013-06-18 14:00:00,
2013-06-18 08:33:00,73.0,20.0,29.94,WNW,298,1.0,4.0,13,0.00,,,-99.99,,2013-06-18 14:33:00,
2013-06-18 08:43:00,73.0,20.0,29.94,WNW,298,1.0,4.0,13,0.00,,,-99.99,,2013-06-18 14:43:00,
2013-06-18 08:53:00,73.0,20.0,29.94,WNW,298,1.0,4.0,13,0.00,,,-99.99,,2013-06-18 14:53:00,
2013-06-18 09:00:00,76.0,22.0,29.95,NW,321,3.0,6.0,13,0.00,,,-99.99,,2013-06-18 15:00:00,
2013-06-18 09:33:00,76.0,22.0,29.95,NW,321,3.0,6.0,13,0.00,,,-99.99,,2013-06-18 15:33:00,
2013-06-18 09:43:00,76.0,22.0,29.95,NW,321,3.0,6.0,13,0.00,,,-99.99,,2013-06-18 15:43:00,
2013-06-18 09:53:00,76.0,22.0,29.95,NW,321,3.0,6.0,13,0.00,,,-99.99,,2013-06-18 15:53:00,
2013-06-18 10:00:00,79.0,22.0,29.95,NNW,335,2.0,5.0,11,0.00,,,-99.99,,2013-06-18 16:00:00,
2013-06-18 10:33:00,79.0,22.0,29.95,NNW,335,2.0,5.0,11,0.00,,,-99.99,,2013-06-18 16:33:00,
2013-06-18 10:43:00,79.0,22.0,29.95,NNW,335,2.0,5.0,11,0.00,,,-99.99,,2013-06-18 16:43:00,
2013-06-18 10:53:00,79.0,22.0,29.95,NNW,335,2.0,5.0,11,0.00,,,-99.99,,2013-06-18 16:53:00,
2013-06-18 11:00:00,87.0,21.0,29.92,SE,129,7.0,16.0,9,0.00,,,-99.99,,2013-06-18 17:00:00,
2013-06-18 11:34:00,87.0,21.0,29.92,SE,129,7.0,16.0,9,0.00,,,-99.99,,2013-06-18 17:34:00,
2013-06-18 11:43:00,87.0,21.0,29.92,SE,129,7.0,16.0,9,0.00,,,-99.99,,2013-06-18 17:43:00,
2013-06-18 11:53:00,87.0,21.0,29.92,SE,129,7.0,16.0,9,0.00,,,-99.99,,2013-06-18 17:53:00,
2013-06-18 12:00:00,91.0,21.0,29.91,SE,131,7.0,17.0,8,0.00,,,-99.99,,2013-06-18 18:00:00,
2013-06-18 12:33:00,91.0,21.0,29.91,SE,131,7.0,17.0,8,0.00,,,-99.99,,2013-06-18 18:33:00,
2013-06-18 12:43:00,91.0,21.0,29.91,SE,131,7.0,17.0,8,0.00,,,-99.99,,2013-06-18 18:43:00,
2013-06-18 12:53:00,91.0,21.0,29.91,SE,131,7.0,17.0,8,0.00,,,-99.99,,2013-06-18 18:53:00,
2013-06-18 16:00:00,94.0,20.0,29.83,SE,127,6.0,21.0,6,0.00,,,-99.99,,2013-06-18 22:00:00,
2013-06-18 16:34:00,94.0,20.0,29.83,SE,127,6.0,21.0,6,0.00,,,-99.99,,2013-06-18 22:34:00,
2013-06-18 16:53:00,94.0,20.0,29.83,SE,127,6.0,21.0,6,0.00,,,-99.99,,2013-06-18 22:53:00,
2013-06-18 17:00:00,94.0,16.0,29.81,SE,142,6.0,16.0,5,0.00,,,-99.99,,2013-06-18 23:00:00,
2013-06-18 17:39:00,94.0,16.0,29.81,SE,142,6.0,16.0,5,0.00,,,-99.99,,2013-06-18 23:39:00,
2013-06-18 17:48:00,94.0,16.0,29.81,SE,142,6.0,16.0,5,0.00,,,-99.99,,2013-06-18 23:48:00,
2013-06-18 18:00:00,94.0,13.0,29.78,NW,321,8.0,19.0,5,0.00,,,-99.99,,2013-06-19 00:00:00,
2013-06-18 18:33:00,94.0,13.0,29.78,NW,321,8.0,19.0,5,0.00,,,-99.99,,2013-06-19 00:33:00,
2013-06-18 18:53:00,94.0,13.0,29.78,NW,321,8.0,19.0,5,0.00,,,-99.99,,2013-06-19 00:53:00,
2013-06-18 21:33:00,87.0,13.0,29.77,ESE,109,3.0,13.0,6,0.00,,,-99.99,,2013-06-19 03:33:00,
2013-06-18 22:00:00,83.0,12.0,29.76,SSE,167,3.0,6.0,7,0.00,,,-99.99,,2013-06-19 04:00:00,
2013-06-18 22:33:00,83.0,12.0,29.76,SSE,167,3.0,6.0,7,0.00,,,-99.99,,2013-06-19 04:33:00,
2013-06-18 22:43:00,83.0,12.0,29.76,SSE,167,3.0,6.0,7,0.00,,,-99.99,,2013-06-19 04:43:00,
2013-06-18 22:53:00,83.0,12.0,29.76,SSE,167,3.0,6.0,7,0.00,,,-99.99,,2013-06-19 04:53:00,
2013-06-18 23:00:00,81.0,12.0,29.76,SSE,150,5.0,9.0,7,0.00,,,-99.99,,2013-06-19 05:00:00,
2013-06-18 23:32:00,81.0,12.0,29.76,SSE,150,5.0,9.0,7,0.00,,,-99.99,,2013-06-19 05:32:00,
2013-06-18 23:43:00,81.0,12.0,29.76,SSE,150,5.0,9.0,7,0.00,,,-99.99,,2013-06-19 05:43:00,
2013-06-18 23:52:00,81.0,12.0,29.76,SSE,150,5.0,9.0,7,0.00,,,-99.99,,2013-06-19 05:52:00,